Nf67 Femarnbaelt II — OU3102 — position and weather

sailwx.info

Track history (hours):
 
Tides and Currents Weather Stations Pressure Air Temp Water Temp Dewpoint Dewpoint Depression Visibility Wind Speed Wind Dir Waves Ship Positions

Nf67 Femarnbaelt II

Last reported at 2015-Feb-27 11:27 UTC. Time now 2015-Feb-28 12:30 UTC.
Position N 54°38' E 011°21'.

Length 15 m.

Type: Fishing. MMSI: 219012459.

Date/timePositionNaut miles runAvg speedWind from/ knotsBaromVisibWave heightAir tempDewpointWater temp
2015-Feb-27 11:27N 54°38' E 011°21'6 6.2
2015-Feb-27 10:33N 54°33' E 011°20'3 2.5
2015-Feb-27 09:33N 54°31' E 011°23'3 3.4
2015-Feb-27 08:33N 54°30' E 011°29'1 0.6
2015-Feb-27 07:33N 54°30' E 011°30'3 3.4
2015-Feb-27 06:33N 54°31' E 011°24'3 2.9
2015-Feb-27 05:33N 54°33' E 011°20'6 0.4
2015-Feb-26 14:12N 54°39' E 011°21'5 8.1
2015-Feb-26 13:33N 54°34' E 011°26'7 6.8
2015-Feb-26 12:33N 54°28' E 011°32'2 1.9
2015-Feb-26 11:33N 54°29' E 011°29'3 3.2
2015-Feb-26 10:33N 54°31' E 011°25'1 1.0
2015-Feb-26 09:33N 54°32' E 011°25'3 3.4
2015-Feb-26 08:33N 54°30' E 011°29'0 0.3
2015-Feb-26 07:33N 54°30' E 011°29'3 3.0
2015-Feb-26 06:34N 54°32' E 011°25'3 3.0
2015-Feb-26 05:33N 54°33' E 011°21'6 5.3
2015-Feb-26 04:26N 54°39' E 011°21'2 0.2
2015-Feb-25 18:27N 54°38' E 011°21'4 4.9
2015-Feb-25 17:33N 54°34' E 011°16'2 2.5
2015-Feb-25 16:33N 54°32' E 011°19'3 2.8
2015-Feb-25 15:33N 54°31' E 011°24'3 2.9
2015-Feb-25 14:32N 54°32' E 011°19'1 1.5
2015-Feb-25 13:33N 54°32' E 011°21'3 2.7
2015-Feb-25 12:33N 54°30' E 011°25'3 2.9
2015-Feb-25 11:33N 54°32' E 011°22'3 3.1
2015-Feb-25 10:33N 54°34' E 011°18'2 1.7
2015-Feb-25 09:33N 54°32' E 011°19'3 3.3
2015-Feb-25 08:33N 54°30' E 011°23'2 1.7
2015-Feb-25 07:33N 54°29' E 011°25'3 3.0
2015-Feb-25 06:33N 54°32' E 011°22'3 2.7
2015-Feb-25 05:33N 54°33' E 011°19'4 0.4
2015-Feb-24 18:33N 54°37' E 011°20'3 3.3
2015-Feb-24 17:33N 54°34' E 011°19'3 2.8
2015-Feb-24 16:33N 54°32' E 011°21'1 0.9
2015-Feb-24 15:33N 54°31' E 011°22'1 1.5
2015-Feb-24 14:33N 54°32' E 011°20'3 3.2
2015-Feb-24 13:33N 54°29' E 011°24'2 2.5
2015-Feb-24 12:33N 54°27' E 011°26'3 3.4
2015-Feb-24 11:33N 54°30' E 011°23'3 3.4
2015-Feb-24 10:33N 54°33' E 011°19'1 1.3
2015-Feb-24 09:33N 54°32' E 011°20'3 3.3
2015-Feb-24 08:33N 54°29' E 011°25'1 0.8
2015-Feb-24 07:33N 54°29' E 011°24'3 3.2
2015-Feb-24 06:32N 54°31' E 011°21'3 3.2
2015-Feb-24 05:33N 54°34' E 011°18'  
2015-Feb-20 18:18N 54°38' E 011°21'3 4.0
2015-Feb-20 17:33N 54°35' E 011°21'4 3.7
2015-Feb-20 16:33N 54°31' E 011°21'3 3.1
2015-Feb-20 15:33N 54°29' E 011°24'3 3.1
2015-Feb-20 14:33N 54°31' E 011°21'3 2.7
2015-Feb-20 13:33N 54°33' E 011°17'3 2.7
2015-Feb-20 12:33N 54°35' E 011°14'3 3.1
2015-Feb-20 11:32N 54°33' E 011°18'3 3.2
2015-Feb-20 10:33N 54°30' E 011°21'1 1.3
2015-Feb-20 09:33N 54°29' E 011°23'3 3.1
2015-Feb-20 08:33N 54°32' E 011°20'3 3.1
2015-Feb-20 07:33N 54°34' E 011°15'4 1.7
2015-Feb-20 05:29N 54°37' E 011°13'5 0.4
2015-Feb-19 18:34N 54°37' E 011°22'7 6.7
2015-Feb-19 17:33N 54°30' E 011°23'1 0.7
2015-Feb-19 16:33N 54°30' E 011°22'3 3.5
2015-Feb-19 15:33N 54°33' E 011°18'4 3.4
2015-Feb-19 14:30N 54°34' E 011°12'2 1.7
2015-Feb-19 13:23N 54°35' E 011°09'3 3.2
2015-Feb-19 12:33N 54°34' E 011°14'3 3.3
2015-Feb-19 11:33N 54°32' E 011°18'3 3.2
2015-Feb-19 10:33N 54°30' E 011°21'3 3.2
2015-Feb-19 09:33N 54°27' E 011°25'2 2.1
2015-Feb-19 08:33N 54°29' E 011°23'3 3.4
2015-Feb-19 07:33N 54°31' E 011°19'3 3.3
2015-Feb-19 06:33N 54°33' E 011°15'2 2.3
2015-Feb-19 05:30N 54°36' E 011°14'4 0.2
2015-Feb-18 13:07N 54°39' E 011°18'3 5.9
2015-Feb-18 12:33N 54°35' E 011°17'2 2.2
2015-Feb-18 11:33N 54°33' E 011°16'3 3.0
2015-Feb-18 10:33N 54°31' E 011°19'3 3.1
2015-Feb-18 09:33N 54°29' E 011°22'3 3.3
2015-Feb-18 08:33N 54°26' E 011°25'2 2.1
2015-Feb-18 07:33N 54°28' E 011°23'3 3.4
2015-Feb-18 06:33N 54°31' E 011°21'2 2.1
2015-Feb-18 05:33N 54°33' E 011°20'2 0.2
2015-Feb-17 17:33N 54°35' E 011°20'3 3.3
2015-Feb-17 16:33N 54°32' E 011°19'3 3.2
2015-Feb-17 15:32N 54°29' E 011°22'2 2.1
2015-Feb-17 14:33N 54°27' E 011°24'3 3.2
2015-Feb-17 13:33N 54°30' E 011°21'3 3.2
2015-Feb-17 12:33N 54°33' E 011°18'0 0.2
2015-Feb-17 11:33N 54°32' E 011°18'  
Track history (hours):
 
Tides and Currents Weather Stations Pressure Air Temp Water Temp Dewpoint Dewpoint Depression Visibility Wind Speed Wind Dir Waves Ship Positions

Nf67 Femarnbaelt II

Last reported at 2015-Feb-27 11:27 UTC. Time now 2015-Feb-28 12:30 UTC.
Position N 54°38' E 011°21'.

Length 15 m.

Type: Fishing. MMSI: 219012459.

Date/timePositionNaut miles runAvg speedWind from/ knotsBaromVisibWave heightAir tempDewpointWater temp
2015-Feb-27 11:27N 54°38' E 011°21'6 6.2
2015-Feb-27 10:33N 54°33' E 011°20'3 2.5
2015-Feb-27 09:33N 54°31' E 011°23'3 3.4
2015-Feb-27 08:33N 54°30' E 011°29'1 0.6
2015-Feb-27 07:33N 54°30' E 011°30'3 3.4
2015-Feb-27 06:33N 54°31' E 011°24'3 2.9
2015-Feb-27 05:33N 54°33' E 011°20'6 0.4
2015-Feb-26 14:12N 54°39' E 011°21'5 8.1
2015-Feb-26 13:33N 54°34' E 011°26'7 6.8
2015-Feb-26 12:33N 54°28' E 011°32'2 1.9
2015-Feb-26 11:33N 54°29' E 011°29'3 3.2
2015-Feb-26 10:33N 54°31' E 011°25'1 1.0
2015-Feb-26 09:33N 54°32' E 011°25'3 3.4
2015-Feb-26 08:33N 54°30' E 011°29'0 0.3
2015-Feb-26 07:33N 54°30' E 011°29'3 3.0
2015-Feb-26 06:34N 54°32' E 011°25'3 3.0
2015-Feb-26 05:33N 54°33' E 011°21'6 5.3
2015-Feb-26 04:26N 54°39' E 011°21'2 0.2
2015-Feb-25 18:27N 54°38' E 011°21'4 4.9
2015-Feb-25 17:33N 54°34' E 011°16'2 2.5
2015-Feb-25 16:33N 54°32' E 011°19'3 2.8
2015-Feb-25 15:33N 54°31' E 011°24'3 2.9
2015-Feb-25 14:32N 54°32' E 011°19'1 1.5
2015-Feb-25 13:33N 54°32' E 011°21'3 2.7
2015-Feb-25 12:33N 54°30' E 011°25'3 2.9
2015-Feb-25 11:33N 54°32' E 011°22'3 3.1
2015-Feb-25 10:33N 54°34' E 011°18'2 1.7
2015-Feb-25 09:33N 54°32' E 011°19'3 3.3
2015-Feb-25 08:33N 54°30' E 011°23'2 1.7
2015-Feb-25 07:33N 54°29' E 011°25'3 3.0
2015-Feb-25 06:33N 54°32' E 011°22'3 2.7
2015-Feb-25 05:33N 54°33' E 011°19'4 0.4
2015-Feb-24 18:33N 54°37' E 011°20'3 3.3
2015-Feb-24 17:33N 54°34' E 011°19'3 2.8
2015-Feb-24 16:33N 54°32' E 011°21'1 0.9
2015-Feb-24 15:33N 54°31' E 011°22'1 1.5
2015-Feb-24 14:33N 54°32' E 011°20'3 3.2
2015-Feb-24 13:33N 54°29' E 011°24'2 2.5
2015-Feb-24 12:33N 54°27' E 011°26'3 3.4
2015-Feb-24 11:33N 54°30' E 011°23'3 3.4
2015-Feb-24 10:33N 54°33' E 011°19'1 1.3
2015-Feb-24 09:33N 54°32' E 011°20'3 3.3
2015-Feb-24 08:33N 54°29' E 011°25'1 0.8
2015-Feb-24 07:33N 54°29' E 011°24'3 3.2
2015-Feb-24 06:32N 54°31' E 011°21'3 3.2
2015-Feb-24 05:33N 54°34' E 011°18'  
2015-Feb-20 18:18N 54°38' E 011°21'3 4.0
2015-Feb-20 17:33N 54°35' E 011°21'4 3.7
2015-Feb-20 16:33N 54°31' E 011°21'3 3.1
2015-Feb-20 15:33N 54°29' E 011°24'3 3.1
2015-Feb-20 14:33N 54°31' E 011°21'3 2.7
2015-Feb-20 13:33N 54°33' E 011°17'3 2.7
2015-Feb-20 12:33N 54°35' E 011°14'3 3.1
2015-Feb-20 11:32N 54°33' E 011°18'3 3.2
2015-Feb-20 10:33N 54°30' E 011°21'1 1.3
2015-Feb-20 09:33N 54°29' E 011°23'3 3.1
2015-Feb-20 08:33N 54°32' E 011°20'3 3.1
2015-Feb-20 07:33N 54°34' E 011°15'4 1.7
2015-Feb-20 05:29N 54°37' E 011°13'5 0.4
2015-Feb-19 18:34N 54°37' E 011°22'7 6.7
2015-Feb-19 17:33N 54°30' E 011°23'1 0.7
2015-Feb-19 16:33N 54°30' E 011°22'3 3.5
2015-Feb-19 15:33N 54°33' E 011°18'4 3.4
2015-Feb-19 14:30N 54°34' E 011°12'2 1.7
2015-Feb-19 13:23N 54°35' E 011°09'3 3.2
2015-Feb-19 12:33N 54°34' E 011°14'3 3.3
2015-Feb-19 11:33N 54°32' E 011°18'3 3.2
2015-Feb-19 10:33N 54°30' E 011°21'3 3.2
2015-Feb-19 09:33N 54°27' E 011°25'2 2.1
2015-Feb-19 08:33N 54°29' E 011°23'3 3.4
2015-Feb-19 07:33N 54°31' E 011°19'3 3.3
2015-Feb-19 06:33N 54°33' E 011°15'2 2.3
2015-Feb-19 05:30N 54°36' E 011°14'4 0.2
2015-Feb-18 13:07N 54°39' E 011°18'3 5.9
2015-Feb-18 12:33N 54°35' E 011°17'2 2.2
2015-Feb-18 11:33N 54°33' E 011°16'3 3.0
2015-Feb-18 10:33N 54°31' E 011°19'3 3.1
2015-Feb-18 09:33N 54°29' E 011°22'3 3.3
2015-Feb-18 08:33N 54°26' E 011°25'2 2.1
2015-Feb-18 07:33N 54°28' E 011°23'3 3.4
2015-Feb-18 06:33N 54°31' E 011°21'2 2.1
2015-Feb-18 05:33N 54°33' E 011°20'2 0.2
2015-Feb-17 17:33N 54°35' E 011°20'3 3.3
2015-Feb-17 16:33N 54°32' E 011°19'3 3.2
2015-Feb-17 15:32N 54°29' E 011°22'2 2.1
2015-Feb-17 14:33N 54°27' E 011°24'3 3.2
2015-Feb-17 13:33N 54°30' E 011°21'3 3.2
2015-Feb-17 12:33N 54°33' E 011°18'0 0.2
2015-Feb-17 11:33N 54°32' E 011°18'  

Dump ship's entire track history